x

Texas Tower #4 - 75 Nm East Of Long Beach, Nj (44066) Wave Buoy

10:50am - Sat 19th Aug 2017 All times are EDT. -4 hours from GMT.

  • Sig Wave height 3.9ft
  • Swell Direction
  • Peak Period 6s
  • Average Period 5s
  • Wind
    7mph, 9mph gusts
  • Sea Temp 74°f
  • Air Temp 75°f
  • Sea Pressure 1011.4mb
  • Texas Tower #4 - 75 Nm East Of Long Beach, Nj
  • Texas Tower #4 - 75 Nm East Of Long Beach, Nj

More Historic Weather Station data

Upgrade to MSW Pro to gain access to the past 30 days of data for over 8000 Wavebouys and Weather Stations around the globe.

Join

Comparision Forecast

View Surf forecast
   
Sat 08/19 10:50am 4ft 6s 5s 7 9 mph 1011.4mb 74f 75f
9:50am 4ft 6s 5s 7 7 mph 1011.2mb 74f 75f
8:50am 4ft 6s 5s 7 7 mph 1010.5mb 74f 75f
7:50am 4ft 6s 5s 13 18 mph 1009.9mb 74f 75f
6:50am 4ft 6s 5s 11 11 mph 1009.3mb 74f 75f
5:50am 4.5ft 6s 5s 11 11 mph 1008.8mb 74f 75f
4:50am 4.5ft 6s 5s 9 11 mph 1008.8mb 74f 75f
3:50am 5ft 6s 5s 11 13 mph 1008.9mb 74f 75f
2:50am 4.5ft 6s 5s 9 11 mph 1009.1mb 74f 76f
1:50am 4.5ft 6s 5s 11 13 mph 1009mb 74f 76f
12:50am 5ft 5s 5s 22 27 mph 1008mb 74f 76f
Fri 08/18 11:50pm 5ft 5s 5s 22 25 mph 1009.9mb 74f 77f
10:50pm 5ft 6s 5s 22 25 mph 1010.3mb 74f 77f
9:50pm 4.5ft 6s 5s 18 22 mph 1010.9mb 74f 77f
8:50pm 5ft 5s 5s 18 22 mph 1010.2mb 75f 77f
7:50pm 4.5ft 5s 5s 20 22 mph 1009.8mb 74f 77f
5:50pm 4ft 5s 4s 22 25 mph 1009.4mb 75f 77f
4:50pm 3.5ft 5s 4s 22 27 mph 1009.4mb 75f 77f
3:50pm 3.5ft 5s 4s 20 25 mph 1010.1mb 75f 77f
2:50pm 3.5ft 5s 4s 20 22 mph 1011.2mb 75f 77f
1:50pm 3.5ft 4s 4s 18 20 mph 1012.2mb 75f 77f
12:50pm 4ft 4s 4s 20 22 mph 1012.5mb 75f 77f
11:50am 3.5ft 4s 4s 18 22 mph 1012.9mb 75f 77f
10:50am 3.5ft 4s 4s 18 20 mph 1013.3mb 75f 76f
9:50am 2.5ft 4s 4s 18 22 mph 1013.1mb 75f 76f
8:50am 2.5ft 7s 4s 16 20 mph 1013.2mb 75f 76f
7:50am 2.5ft 8s 4s 13 16 mph 1013.6mb 75f 76f
6:50am 2.5ft 7s 4s 13 13 mph 1013.7mb 75f 75f
5:50am 2.5ft 7s 4s 13 16 mph 1013.4mb 75f 75f
4:50am 2ft 8s 5s 11 13 mph 1013.5mb 75f 75f
3:50am 2ft 8s 5s 13 16 mph 1013.6mb 75f 75f
2:50am 2ft 7s 5s 11 13 mph 1013.8mb 75f 75f
1:50am 2ft 8s 5s 11 11 mph 1014.5mb 75f 75f
12:50am 2.5ft 8s 6s 9 11 mph 1015mb 76f 75f
Thu 08/17 11:50pm 2.5ft 7s 6s 11 11 mph 1015.3mb 76f 75f
10:50pm 3ft 7s 6s 9 11 mph 1015.6mb 76f 75f
9:50pm 3ft 8s 6s 9 11 mph 1015.5mb 76f 75f
8:50pm 2.5ft 8s 6s 7 7 mph 1015.3mb 76f 75f
7:50pm 3ft 7s 6s 4 7 mph 1015.4mb 76f 75f
6:50pm 3ft 8s 6s 7 7 mph 1015.1mb 77f 76f
5:50pm 2.5ft 8s 6s 7 9 mph 1014.9mb 77f 76f
4:50pm 2.5ft 8s 6s 4 7 mph 1014.9mb 78f 76f
3:50pm 2.5ft 7s 6s 7 9 mph 1015.5mb 77f 76f
2:50pm 2.5ft 7s 6s 7 9 mph 1015.7mb 76f 74f
1:50pm 2.5ft 8s 6s 7 9 mph 1016.3mb 76f 74f
12:50pm 2ft 8s 6s 2 2 mph 1016.8mb 76f 76f
11:50am 2ft 8s 7s 4 4 mph 1016.8mb 76f 74f
10:50am 2.5ft 8s 7s 9 9 mph 1016.8mb 75f 74f
9:50am 2ft 8s 7s 4 4 mph 1016.9mb 75f 75f
8:50am 2.5ft 8s 7s 2 2 mph 1016.9mb 75f 75f
7:50am 2.5ft 8s 7s 2 2 mph 1016.9mb 74f 74f
6:50am 2.5ft 10s 7s 2 2 mph 1016.3mb 74f 74f
5:50am 2.5ft 8s 7s 2 2 mph 1015.8mb 74f 74f
4:50am 2.5ft 8s 7s 4 4 mph 1015.4mb 74f 74f
3:50am 2.5ft 10s 7s 4 7 mph 1015.3mb 74f 74f
2:50am 2.5ft 9s 7s 7 9 mph 1015.5mb 74f 74f
1:50am 2.5ft 8s 7s 9 9 mph 1015.6mb 74f 74f
12:50am 2.5ft 9s 7s 9 11 mph 1015.9mb 75f 74f
Wed 08/16 11:50pm 3ft 9s 7s 7 9 mph 1015.9mb 75f 74f
10:50pm 3ft 9s 7s 7 7 mph 1015.7mb 74f 74f
9:50pm 3.5ft 10s 7s 7 9 mph 1015.5mb 75f 74f
8:50pm 3.5ft 11s 7s 7 9 mph 1015.3mb 75f 74f
7:50pm 3.5ft 11s 7s 7 9 mph 1014.8mb 75f 75f
6:50pm 3.5ft 10s 7s 2 2 mph 1014.3mb 75f 76f
5:50pm 3.5ft 10s 7s 4 7 mph 1014.3mb 75f 75f
4:50pm 4ft 12s 7s 9 11 mph 1013.9mb 75f 75f
3:50pm 4ft 12s 6s 9 9 mph 1014mb 75f 75f
2:50pm 4.5ft 10s 7s 9 11 mph 1013.6mb 75f 74f
1:50pm 4.5ft 11s 6s 7 9 mph 1014.1mb 75f 74f
12:50pm 4.5ft 14s 7s 7 7 mph 1014mb 74f 74f
11:50am 4.5ft 9s 7s 9 11 mph 1013.9mb 74f 73f
10:50am 5ft 11s 7s 13 16 mph 1013.7mb 74f 73f
9:50am 5.5ft 12s 8s 13 18 mph 1013.3mb 74f 74f
8:50am 6ft 14s 7s 13 18 mph 1013mb 74f 74f
7:50am 6ft 11s 8s 13 16 mph 1012.9mb 74f 74f
6:50am 7ft 10s 9s 16 20 mph 1012.4mb 73f 73f
5:50am 7ft 12s 9s 9 11 mph 1011.8mb 74f 73f
4:50am 6.5ft 13s 9s 7 9 mph 1011.5mb 74f 72f
3:50am 7ft 13s 9s 4 7 mph 1011.4mb 74f 72f
2:50am 7ft 11s 9s 7 9 mph 1011.8mb 74f 72f
1:50am 7ft 12s 10s 7 9 mph 1011.6mb 74f 72f
12:50am 7ft 12s 10s 4 7 mph 1011.5mb 74f 72f
Tue 08/15 11:50pm 6.5ft 12s 9s 4 7 mph 1011.3mb 74f 72f
10:50pm 6.5ft 13s 9s 7 7 mph 1011.7mb 74f 73f
9:50pm 6ft 12s 9s 9 9 mph 1011.8mb 74f 73f
8:50pm 5.5ft 12s 8s 7 9 mph 1011.5mb 74f 73f
7:50pm 5ft 13s 8s 9 11 mph 1011.7mb 74f 73f
6:50pm 5ft 12s 8s 11 13 mph 1011.5mb 74f 73f
5:50pm 4.5ft 10s 7s 11 11 mph 1011.5mb 74f 73f
4:50pm 3.5ft 11s 7s 11 13 mph 1011.1mb 74f 73f